sensor_id;sensor_type;location;lat;lon;timestamp;pressure;altitude;pressure_sealevel;temperature;humidity
10366;BME280;5229;41.820;23.490;2023-05-25T00:02:23;90053.13;;;15.28;53.48
10366;BME280;5229;41.820;23.490;2023-05-25T00:04:50;90055.97;;;15.23;53.03
10366;BME280;5229;41.820;23.490;2023-05-25T00:07:17;90047.25;;;15.19;53.43
10366;BME280;5229;41.820;23.490;2023-05-25T00:09:44;90045.31;;;15.16;53.02
10366;BME280;5229;41.820;23.490;2023-05-25T00:12:13;90045.19;;;15.12;53.40
10366;BME280;5229;41.820;23.490;2023-05-25T00:14:40;90048.03;;;15.07;53.81
10366;BME280;5229;41.820;23.490;2023-05-25T00:17:07;90050.09;;;15.02;53.64
10366;BME280;5229;41.820;23.490;2023-05-25T00:19:35;90053.69;;;14.97;54.02
10366;BME280;5229;41.820;23.490;2023-05-25T00:22:02;90043.81;;;14.91;53.87
10366;BME280;5229;41.820;23.490;2023-05-25T00:24:29;90044.13;;;14.89;54.03
10366;BME280;5229;41.820;23.490;2023-05-25T00:26:56;90045.22;;;14.88;53.81
10366;BME280;5229;41.820;23.490;2023-05-25T00:29:25;90044.91;;;14.90;53.80
10366;BME280;5229;41.820;23.490;2023-05-25T00:31:52;90051.84;;;14.86;54.09
10366;BME280;5229;41.820;23.490;2023-05-25T00:34:18;90051.44;;;14.84;54.23
10366;BME280;5229;41.820;23.490;2023-05-25T00:36:46;90045.03;;;14.81;54.24
10366;BME280;5229;41.820;23.490;2023-05-25T00:39:13;90052.31;;;14.76;54.33
10366;BME280;5229;41.820;23.490;2023-05-25T00:41:42;90038.72;;;14.70;54.68
10366;BME280;5229;41.820;23.490;2023-05-25T00:44:10;90048.16;;;14.62;54.55
10366;BME280;5229;41.820;23.490;2023-05-25T00:46:43;90047.28;;;14.58;54.71
10366;BME280;5229;41.820;23.490;2023-05-25T00:49:12;90045.97;;;14.52;54.65
10366;BME280;5229;41.820;23.490;2023-05-25T00:51:40;90047.72;;;14.48;54.91
10366;BME280;5229;41.820;23.490;2023-05-25T00:54:11;90043.91;;;14.46;54.88
10366;BME280;5229;41.820;23.490;2023-05-25T00:56:39;90040.44;;;14.42;54.82
10366;BME280;5229;41.820;23.490;2023-05-25T00:59:09;90041.41;;;14.37;55.04
10366;BME280;5229;41.820;23.490;2023-05-25T01:01:40;90036.72;;;14.31;55.39
10366;BME280;5229;41.820;23.490;2023-05-25T01:04:10;90048.44;;;14.25;55.54
10366;BME280;5229;41.820;23.490;2023-05-25T01:06:41;90053.09;;;14.19;55.48
10366;BME280;5229;41.820;23.490;2023-05-25T01:09:10;90048.84;;;14.15;55.67
10366;BME280;5229;41.820;23.490;2023-05-25T01:11:41;90045.78;;;14.13;55.71
10366;BME280;5229;41.820;23.490;2023-05-25T01:14:09;90051.34;;;14.11;55.83
10366;BME280;5229;41.820;23.490;2023-05-25T01:16:36;90048.59;;;14.08;55.80
10366;BME280;5229;41.820;23.490;2023-05-25T01:19:06;90050.31;;;14.04;56.09
10366;BME280;5229;41.820;23.490;2023-05-25T01:21:36;90049.88;;;14.02;56.00
10366;BME280;5229;41.820;23.490;2023-05-25T01:24:11;90046.84;;;14.00;55.88
10366;BME280;5229;41.820;23.490;2023-05-25T01:26:45;90048.69;;;13.99;56.27
10366;BME280;5229;41.820;23.490;2023-05-25T01:29:13;90051.59;;;13.98;55.95
10366;BME280;5229;41.820;23.490;2023-05-25T01:31:41;90043.69;;;13.94;56.48
10366;BME280;5229;41.820;23.490;2023-05-25T01:34:09;90041.25;;;13.89;56.54
10366;BME280;5229;41.820;23.490;2023-05-25T01:36:38;90043.31;;;13.84;56.77
10366;BME280;5229;41.820;23.490;2023-05-25T01:39:05;90046.88;;;13.79;56.53
10366;BME280;5229;41.820;23.490;2023-05-25T01:41:31;90057.19;;;13.76;56.75
10366;BME280;5229;41.820;23.490;2023-05-25T01:43:58;90048.91;;;13.74;57.15
10366;BME280;5229;41.820;23.490;2023-05-25T01:46:32;90054.44;;;13.72;57.21
10366;BME280;5229;41.820;23.490;2023-05-25T01:49:09;90049.59;;;13.71;56.97
10366;BME280;5229;41.820;23.490;2023-05-25T01:51:45;90055.53;;;13.71;57.34
10366;BME280;5229;41.820;23.490;2023-05-25T01:54:17;90056.94;;;13.69;57.43
10366;BME280;5229;41.820;23.490;2023-05-25T01:56:46;90059.88;;;13.67;57.27
10366;BME280;5229;41.820;23.490;2023-05-25T01:59:15;90056.50;;;13.67;57.40
10366;BME280;5229;41.820;23.490;2023-05-25T02:01:45;90058.78;;;13.68;57.52
10366;BME280;5229;41.820;23.490;2023-05-25T02:04:13;90054.78;;;13.71;57.64
10366;BME280;5229;41.820;23.490;2023-05-25T02:06:47;90053.38;;;13.73;57.75
10366;BME280;5229;41.820;23.490;2023-05-25T02:09:13;90049.47;;;13.79;57.95
10366;BME280;5229;41.820;23.490;2023-05-25T02:11:40;90045.59;;;13.85;58.02
10366;BME280;5229;41.820;23.490;2023-05-25T02:14:07;90046.94;;;13.91;57.73
10366;BME280;5229;41.820;23.490;2023-05-25T02:16:35;90045.66;;;13.97;58.15
10366;BME280;5229;41.820;23.490;2023-05-25T02:19:02;90043.78;;;13.98;58.10
10366;BME280;5229;41.820;23.490;2023-05-25T02:21:29;90049.78;;;13.98;57.80
10366;BME280;5229;41.820;23.490;2023-05-25T02:23:57;90052.47;;;14.02;58.00
10366;BME280;5229;41.820;23.490;2023-05-25T02:26:24;90050.00;;;14.05;58.21
10366;BME280;5229;41.820;23.490;2023-05-25T02:28:50;90056.09;;;14.09;58.14
10366;BME280;5229;41.820;23.490;2023-05-25T02:31:17;90054.25;;;14.10;57.74
10366;BME280;5229;41.820;23.490;2023-05-25T02:33:44;90050.97;;;14.13;58.09
10366;BME280;5229;41.820;23.490;2023-05-25T02:36:11;90053.94;;;14.11;58.25
10366;BME280;5229;41.820;23.490;2023-05-25T02:38:37;90056.56;;;14.11;58.16
10366;BME280;5229;41.820;23.490;2023-05-25T02:41:05;90056.88;;;14.10;58.71
10366;BME280;5229;41.820;23.490;2023-05-25T02:43:32;90061.63;;;14.08;58.19
10366;BME280;5229;41.820;23.490;2023-05-25T02:45:59;90068.13;;;14.02;58.44
10366;BME280;5229;41.820;23.490;2023-05-25T02:48:26;90076.47;;;13.95;58.68
10366;BME280;5229;41.820;23.490;2023-05-25T02:50:52;90083.75;;;13.90;58.52
10366;BME280;5229;41.820;23.490;2023-05-25T02:53:19;90075.22;;;13.81;58.80
10366;BME280;5229;41.820;23.490;2023-05-25T02:55:46;90088.00;;;13.74;59.21
10366;BME280;5229;41.820;23.490;2023-05-25T02:58:14;90079.19;;;13.66;59.51
10366;BME280;5229;41.820;23.490;2023-05-25T03:00:41;90085.69;;;13.60;59.49
10366;BME280;5229;41.820;23.490;2023-05-25T03:03:09;90084.66;;;13.53;59.07
10366;BME280;5229;41.820;23.490;2023-05-25T03:05:35;90081.16;;;13.49;59.66
10366;BME280;5229;41.820;23.490;2023-05-25T03:08:03;90082.25;;;13.48;59.55
10366;BME280;5229;41.820;23.490;2023-05-25T03:10:29;90076.25;;;13.47;59.86
10366;BME280;5229;41.820;23.490;2023-05-25T03:12:56;90080.41;;;13.48;60.08
10366;BME280;5229;41.820;23.490;2023-05-25T03:15:24;90085.31;;;13.50;60.34
10366;BME280;5229;41.820;23.490;2023-05-25T03:17:51;90092.66;;;13.48;59.88
10366;BME280;5229;41.820;23.490;2023-05-25T03:20:21;90088.97;;;13.49;60.05
10366;BME280;5229;41.820;23.490;2023-05-25T03:22:48;90093.13;;;13.50;60.40
10366;BME280;5229;41.820;23.490;2023-05-25T03:25:15;90093.25;;;13.53;59.92
10366;BME280;5229;41.820;23.490;2023-05-25T03:27:42;90095.97;;;13.57;60.03
10366;BME280;5229;41.820;23.490;2023-05-25T03:30:09;90093.19;;;13.62;60.08
10366;BME280;5229;41.820;23.490;2023-05-25T03:32:38;90100.03;;;13.66;59.96
10366;BME280;5229;41.820;23.490;2023-05-25T03:35:05;90098.00;;;13.72;59.84
10366;BME280;5229;41.820;23.490;2023-05-25T03:37:32;90104.09;;;13.76;59.70
10366;BME280;5229;41.820;23.490;2023-05-25T03:39:59;90102.06;;;13.81;59.81
10366;BME280;5229;41.820;23.490;2023-05-25T03:42:27;90103.06;;;13.89;59.67
10366;BME280;5229;41.820;23.490;2023-05-25T03:44:54;90114.94;;;13.98;59.75
10366;BME280;5229;41.820;23.490;2023-05-25T03:47:20;90109.03;;;14.10;59.52
10366;BME280;5229;41.820;23.490;2023-05-25T03:49:49;90103.38;;;14.20;59.48
10366;BME280;5229;41.820;23.490;2023-05-25T03:52:15;90105.19;;;14.28;59.65
10366;BME280;5229;41.820;23.490;2023-05-25T03:54:42;90113.13;;;14.31;59.88
10366;BME280;5229;41.820;23.490;2023-05-25T03:57:09;90122.59;;;14.36;59.66
10366;BME280;5229;41.820;23.490;2023-05-25T03:59:35;90116.41;;;14.40;59.76
10366;BME280;5229;41.820;23.490;2023-05-25T04:02:02;90119.78;;;14.41;59.80
10366;BME280;5229;41.820;23.490;2023-05-25T04:04:29;90116.53;;;14.44;59.68
10366;BME280;5229;41.820;23.490;2023-05-25T04:06:57;90116.97;;;14.46;59.83
10366;BME280;5229;41.820;23.490;2023-05-25T04:09:24;90117.28;;;14.44;59.80
10366;BME280;5229;41.820;23.490;2023-05-25T04:11:51;90112.19;;;14.48;59.96
10366;BME280;5229;41.820;23.490;2023-05-25T04:14:17;90113.06;;;14.52;59.95
10366;BME280;5229;41.820;23.490;2023-05-25T04:16:45;90120.38;;;14.58;60.02
10366;BME280;5229;41.820;23.490;2023-05-25T04:19:12;90124.63;;;14.63;60.28
10366;BME280;5229;41.820;23.490;2023-05-25T04:21:39;90122.97;;;14.70;59.84
10366;BME280;5229;41.820;23.490;2023-05-25T04:24:07;90124.09;;;14.82;59.87
10366;BME280;5229;41.820;23.490;2023-05-25T04:26:34;90118.56;;;14.95;59.60
10366;BME280;5229;41.820;23.490;2023-05-25T04:29:04;90119.75;;;15.10;59.19
10366;BME280;5229;41.820;23.490;2023-05-25T04:31:31;90127.69;;;15.25;59.38
10366;BME280;5229;41.820;23.490;2023-05-25T04:33:58;90123.69;;;15.40;59.52
10366;BME280;5229;41.820;23.490;2023-05-25T04:36:27;90115.06;;;15.51;59.73
10366;BME280;5229;41.820;23.490;2023-05-25T04:38:54;90122.22;;;15.66;59.59
10366;BME280;5229;41.820;23.490;2023-05-25T04:41:22;90121.09;;;15.79;58.93
10366;BME280;5229;41.820;23.490;2023-05-25T04:43:50;90124.53;;;15.95;59.04
10366;BME280;5229;41.820;23.490;2023-05-25T04:46:18;90127.63;;;16.13;58.76
10366;BME280;5229;41.820;23.490;2023-05-25T04:48:45;90139.59;;;16.26;58.79
10366;BME280;5229;41.820;23.490;2023-05-25T04:51:12;90148.16;;;16.38;58.58
10366;BME280;5229;41.820;23.490;2023-05-25T04:53:38;90153.03;;;16.52;58.22
10366;BME280;5229;41.820;23.490;2023-05-25T04:56:05;90145.53;;;16.66;58.06
10366;BME280;5229;41.820;23.490;2023-05-25T04:58:33;90144.69;;;16.77;57.11
10366;BME280;5229;41.820;23.490;2023-05-25T05:01:00;90144.38;;;16.94;56.35
10366;BME280;5229;41.820;23.490;2023-05-25T05:03:27;90148.13;;;17.09;56.45
10366;BME280;5229;41.820;23.490;2023-05-25T05:05:54;90140.50;;;17.19;55.48
10366;BME280;5229;41.820;23.490;2023-05-25T05:08:21;90140.00;;;17.29;55.30
10366;BME280;5229;41.820;23.490;2023-05-25T05:10:48;90144.56;;;17.48;54.87
10366;BME280;5229;41.820;23.490;2023-05-25T05:13:15;90143.84;;;17.67;54.40
10366;BME280;5229;41.820;23.490;2023-05-25T05:15:43;90150.13;;;17.97;53.86
10366;BME280;5229;41.820;23.490;2023-05-25T05:18:09;90154.16;;;18.29;53.46
10366;BME280;5229;41.820;23.490;2023-05-25T05:20:38;90151.75;;;18.58;53.08
10366;BME280;5229;41.820;23.490;2023-05-25T05:23:05;90163.53;;;18.87;52.47
10366;BME280;5229;41.820;23.490;2023-05-25T05:25:32;90161.41;;;19.15;51.43
10366;BME280;5229;41.820;23.490;2023-05-25T05:27:59;90153.88;;;19.36;51.05
10366;BME280;5229;41.820;23.490;2023-05-25T05:30:25;90157.41;;;19.43;50.39
10366;BME280;5229;41.820;23.490;2023-05-25T05:32:53;90153.75;;;19.51;50.09
10366;BME280;5229;41.820;23.490;2023-05-25T05:35:21;90152.16;;;19.69;49.71
10366;BME280;5229;41.820;23.490;2023-05-25T05:37:47;90151.81;;;19.97;49.10
10366;BME280;5229;41.820;23.490;2023-05-25T05:40:14;90142.41;;;20.22;48.67
10366;BME280;5229;41.820;23.490;2023-05-25T05:42:41;90155.59;;;20.55;48.01
10366;BME280;5229;41.820;23.490;2023-05-25T05:45:08;90146.13;;;20.84;47.65
10366;BME280;5229;41.820;23.490;2023-05-25T05:47:35;90146.81;;;21.10;46.75
10366;BME280;5229;41.820;23.490;2023-05-25T05:50:05;90143.97;;;21.33;45.79
10366;BME280;5229;41.820;23.490;2023-05-25T05:52:32;90149.72;;;21.45;45.51
10366;BME280;5229;41.820;23.490;2023-05-25T05:54:58;90153.25;;;21.56;45.48
10366;BME280;5229;41.820;23.490;2023-05-25T05:57:25;90150.66;;;21.63;45.57
10366;BME280;5229;41.820;23.490;2023-05-25T05:59:52;90145.47;;;21.74;45.74
10366;BME280;5229;41.820;23.490;2023-05-25T06:02:19;90145.56;;;21.84;45.88
10366;BME280;5229;41.820;23.490;2023-05-25T06:04:46;90153.56;;;21.98;45.54
10366;BME280;5229;41.820;23.490;2023-05-25T06:07:14;90141.19;;;22.09;45.77
10366;BME280;5229;41.820;23.490;2023-05-25T06:09:41;90149.94;;;22.20;45.87
10366;BME280;5229;41.820;23.490;2023-05-25T06:12:08;90141.31;;;22.30;45.79
10366;BME280;5229;41.820;23.490;2023-05-25T06:14:35;90148.13;;;22.38;45.36
10366;BME280;5229;41.820;23.490;2023-05-25T06:17:01;90148.97;;;22.49;45.37
10366;BME280;5229;41.820;23.490;2023-05-25T06:19:28;90149.41;;;22.62;45.20
10366;BME280;5229;41.820;23.490;2023-05-25T06:21:55;90152.06;;;22.72;44.76
10366;BME280;5229;41.820;23.490;2023-05-25T06:24:23;90148.00;;;22.89;44.67
10366;BME280;5229;41.820;23.490;2023-05-25T06:26:50;90152.94;;;23.12;44.16
10366;BME280;5229;41.820;23.490;2023-05-25T06:29:17;90148.50;;;23.30;43.64
10366;BME280;5229;41.820;23.490;2023-05-25T06:31:43;90146.22;;;23.46;43.19
10366;BME280;5229;41.820;23.490;2023-05-25T06:34:10;90153.81;;;23.65;42.58
10366;BME280;5229;41.820;23.490;2023-05-25T06:36:37;90150.78;;;23.80;42.37
10366;BME280;5229;41.820;23.490;2023-05-25T06:39:04;90158.75;;;23.94;41.56
10366;BME280;5229;41.820;23.490;2023-05-25T06:41:32;90155.34;;;24.08;40.88
10366;BME280;5229;41.820;23.490;2023-05-25T06:43:59;90151.53;;;24.16;41.06
10366;BME280;5229;41.820;23.490;2023-05-25T06:46:25;90154.53;;;24.25;40.86
10366;BME280;5229;41.820;23.490;2023-05-25T06:48:52;90144.69;;;24.32;40.63
10366;BME280;5229;41.820;23.490;2023-05-25T06:51:19;90140.13;;;24.40;40.74
10366;BME280;5229;41.820;23.490;2023-05-25T06:53:46;90133.66;;;24.51;40.97
10366;BME280;5229;41.820;23.490;2023-05-25T06:56:13;90135.91;;;24.67;40.87
10366;BME280;5229;41.820;23.490;2023-05-25T06:58:41;90138.50;;;24.81;40.86
10366;BME280;5229;41.820;23.490;2023-05-25T07:01:08;90136.53;;;24.92;40.51
10366;BME280;5229;41.820;23.490;2023-05-25T07:03:35;90136.91;;;25.01;40.13
10366;BME280;5229;41.820;23.490;2023-05-25T07:06:03;90138.31;;;25.16;39.89
10366;BME280;5229;41.820;23.490;2023-05-25T07:08:30;90140.19;;;25.29;40.38
10366;BME280;5229;41.820;23.490;2023-05-25T07:10:56;90132.91;;;25.37;40.33
10366;BME280;5229;41.820;23.490;2023-05-25T07:13:23;90134.38;;;25.45;39.44
10366;BME280;5229;41.820;23.490;2023-05-25T07:15:51;90129.03;;;25.52;39.86
10366;BME280;5229;41.820;23.490;2023-05-25T07:18:18;90128.19;;;25.66;39.54
10366;BME280;5229;41.820;23.490;2023-05-25T07:20:45;90133.78;;;25.78;39.49
10366;BME280;5229;41.820;23.490;2023-05-25T07:23:13;90125.69;;;25.92;39.34
10366;BME280;5229;41.820;23.490;2023-05-25T07:25:40;90127.09;;;26.07;39.06
10366;BME280;5229;41.820;23.490;2023-05-25T07:28:07;90118.56;;;26.26;38.99
10366;BME280;5229;41.820;23.490;2023-05-25T07:30:34;90114.63;;;26.41;38.67
10366;BME280;5229;41.820;23.490;2023-05-25T07:33:02;90120.53;;;26.56;38.69
10366;BME280;5229;41.820;23.490;2023-05-25T07:35:29;90125.34;;;26.71;38.23
10366;BME280;5229;41.820;23.490;2023-05-25T07:37:56;90126.34;;;26.84;38.18
10366;BME280;5229;41.820;23.490;2023-05-25T07:40:23;90119.34;;;26.97;37.99
10366;BME280;5229;41.820;23.490;2023-05-25T07:42:50;90125.53;;;27.17;37.43
10366;BME280;5229;41.820;23.490;2023-05-25T07:45:17;90118.88;;;27.32;36.84
10366;BME280;5229;41.820;23.490;2023-05-25T07:47:44;90120.13;;;27.51;36.54
10366;BME280;5229;41.820;23.490;2023-05-25T07:50:12;90119.91;;;27.68;36.49
10366;BME280;5229;41.820;23.490;2023-05-25T07:52:40;90121.13;;;27.87;36.13
10366;BME280;5229;41.820;23.490;2023-05-25T07:55:07;90121.69;;;28.01;35.45
10366;BME280;5229;41.820;23.490;2023-05-25T07:57:35;90120.97;;;28.21;34.48
10366;BME280;5229;41.820;23.490;2023-05-25T08:00:02;90125.84;;;28.49;33.69
10366;BME280;5229;41.820;23.490;2023-05-25T08:02:30;90118.00;;;28.81;32.23
10366;BME280;5229;41.820;23.490;2023-05-25T08:04:57;90122.13;;;29.05;31.89
10366;BME280;5229;41.820;23.490;2023-05-25T08:07:25;90122.53;;;29.23;31.16
10366;BME280;5229;41.820;23.490;2023-05-25T08:09:52;90123.72;;;29.38;31.43
10366;BME280;5229;41.820;23.490;2023-05-25T08:12:19;90128.59;;;29.43;31.29
10366;BME280;5229;41.820;23.490;2023-05-25T08:14:45;90115.84;;;29.50;29.62
10366;BME280;5229;41.820;23.490;2023-05-25T08:17:12;90123.47;;;29.68;29.73
10366;BME280;5229;41.820;23.490;2023-05-25T08:19:39;90119.66;;;29.85;29.07
10366;BME280;5229;41.820;23.490;2023-05-25T08:22:06;90117.06;;;29.97;28.64
10366;BME280;5229;41.820;23.490;2023-05-25T08:24:34;90120.66;;;30.07;28.02
10366;BME280;5229;41.820;23.490;2023-05-25T08:27:01;90123.59;;;30.12;27.46
10366;BME280;5229;41.820;23.490;2023-05-25T08:29:28;90118.75;;;30.23;27.42
10366;BME280;5229;41.820;23.490;2023-05-25T08:31:55;90113.97;;;30.31;28.32
10366;BME280;5229;41.820;23.490;2023-05-25T08:34:22;90116.53;;;30.50;27.20
10366;BME280;5229;41.820;23.490;2023-05-25T08:36:48;90120.19;;;31.01;27.06
10366;BME280;5229;41.820;23.490;2023-05-25T08:39:15;90117.72;;;31.48;26.13
10366;BME280;5229;41.820;23.490;2023-05-25T08:41:44;90127.69;;;32.60;24.41
10366;BME280;5229;41.820;23.490;2023-05-25T08:44:11;90124.38;;;34.16;23.01
10366;BME280;5229;41.820;23.490;2023-05-25T08:46:40;90130.66;;;35.60;21.31
10366;BME280;5229;41.820;23.490;2023-05-25T08:49:09;90135.00;;;36.18;20.18
10366;BME280;5229;41.820;23.490;2023-05-25T08:51:37;90135.28;;;35.78;21.66
10366;BME280;5229;41.820;23.490;2023-05-25T08:54:07;90130.63;;;36.20;20.68
10366;BME280;5229;41.820;23.490;2023-05-25T08:56:40;90129.84;;;36.38;20.02
10366;BME280;5229;41.820;23.490;2023-05-25T08:59:18;90131.03;;;35.95;19.87
10366;BME280;5229;41.820;23.490;2023-05-25T09:01:50;90131.00;;;35.08;20.87
10366;BME280;5229;41.820;23.490;2023-05-25T09:04:19;90127.41;;;34.27;21.55
10366;BME280;5229;41.820;23.490;2023-05-25T09:06:47;90129.19;;;34.21;22.20
10366;BME280;5229;41.820;23.490;2023-05-25T09:09:15;90115.00;;;34.29;21.17
10366;BME280;5229;41.820;23.490;2023-05-25T09:11:42;90113.78;;;35.15;20.21
10366;BME280;5229;41.820;23.490;2023-05-25T09:14:11;90113.53;;;36.23;19.78
10366;BME280;5229;41.820;23.490;2023-05-25T09:16:39;90112.78;;;37.02;19.02
10366;BME280;5229;41.820;23.490;2023-05-25T09:19:06;90109.94;;;36.82;19.37
10366;BME280;5229;41.820;23.490;2023-05-25T09:21:33;90112.03;;;36.55;18.75
10366;BME280;5229;41.820;23.490;2023-05-25T09:24:00;90117.59;;;36.51;19.26
10366;BME280;5229;41.820;23.490;2023-05-25T09:26:27;90112.63;;;36.26;19.21
10366;BME280;5229;41.820;23.490;2023-05-25T09:28:54;90104.44;;;35.61;19.30
10366;BME280;5229;41.820;23.490;2023-05-25T09:31:23;90101.91;;;34.67;19.93
10366;BME280;5229;41.820;23.490;2023-05-25T09:33:50;90101.88;;;33.70;21.11
10366;BME280;5229;41.820;23.490;2023-05-25T09:36:20;90103.53;;;32.81;21.75
10366;BME280;5229;41.820;23.490;2023-05-25T09:38:48;90092.97;;;32.06;22.91
10366;BME280;5229;41.820;23.490;2023-05-25T09:41:15;90092.88;;;31.47;23.69
10366;BME280;5229;41.820;23.490;2023-05-25T09:43:42;90086.00;;;31.05;24.31
10366;BME280;5229;41.820;23.490;2023-05-25T09:46:08;90085.09;;;30.83;24.56
10366;BME280;5229;41.820;23.490;2023-05-25T09:48:37;90086.31;;;30.66;24.55
10366;BME280;5229;41.820;23.490;2023-05-25T09:51:05;90086.00;;;30.48;25.04
10366;BME280;5229;41.820;23.490;2023-05-25T09:53:33;90092.03;;;30.36;24.97
10366;BME280;5229;41.820;23.490;2023-05-25T09:56:00;90091.38;;;30.32;24.77
10366;BME280;5229;41.820;23.490;2023-05-25T09:58:27;90087.34;;;30.40;24.11
10366;BME280;5229;41.820;23.490;2023-05-25T10:00:54;90086.59;;;30.84;24.62
10366;BME280;5229;41.820;23.490;2023-05-25T10:03:21;90087.06;;;30.95;24.54
10366;BME280;5229;41.820;23.490;2023-05-25T10:05:51;90086.00;;;31.05;24.28
10366;BME280;5229;41.820;23.490;2023-05-25T10:08:19;90096.31;;;31.07;24.66
10366;BME280;5229;41.820;23.490;2023-05-25T10:10:47;90093.13;;;30.83;24.86
10366;BME280;5229;41.820;23.490;2023-05-25T10:13:19;90098.75;;;30.44;25.56
10366;BME280;5229;41.820;23.490;2023-05-25T10:15:47;90100.59;;;29.99;25.93
10366;BME280;5229;41.820;23.490;2023-05-25T10:18:17;90098.38;;;29.46;26.45
10366;BME280;5229;41.820;23.490;2023-05-25T10:20:52;90102.44;;;28.95;26.95
10366;BME280;5229;41.820;23.490;2023-05-25T10:23:23;90099.56;;;28.47;28.97
10366;BME280;5229;41.820;23.490;2023-05-25T10:25:54;90096.78;;;28.08;30.87
10366;BME280;5229;41.820;23.490;2023-05-25T10:28:27;90100.75;;;27.73;32.82
10366;BME280;5229;41.820;23.490;2023-05-25T10:30:56;90102.75;;;27.43;33.63
10366;BME280;5229;41.820;23.490;2023-05-25T10:33:23;90092.00;;;27.20;34.78
10366;BME280;5229;41.820;23.490;2023-05-25T10:35:53;90087.31;;;27.01;35.98
10366;BME280;5229;41.820;23.490;2023-05-25T10:38:20;90097.94;;;26.74;37.14
10366;BME280;5229;41.820;23.490;2023-05-25T10:40:48;90094.41;;;26.47;36.56
10366;BME280;5229;41.820;23.490;2023-05-25T10:43:17;90089.88;;;26.11;37.10
10366;BME280;5229;41.820;23.490;2023-05-25T10:45:45;90086.75;;;25.72;37.42
10366;BME280;5229;41.820;23.490;2023-05-25T10:48:13;90083.19;;;25.44;38.58
10366;BME280;5229;41.820;23.490;2023-05-25T10:50:39;90093.53;;;25.25;39.06
10366;BME280;5229;41.820;23.490;2023-05-25T10:53:11;90096.63;;;25.13;39.63
10366;BME280;5229;41.820;23.490;2023-05-25T10:55:41;90093.28;;;25.02;39.95
10366;BME280;5229;41.820;23.490;2023-05-25T10:58:10;90104.31;;;24.97;39.91
10366;BME280;5229;41.820;23.490;2023-05-25T11:00:37;90102.03;;;24.92;39.13
10366;BME280;5229;41.820;23.490;2023-05-25T11:03:05;90104.34;;;24.90;38.56
10366;BME280;5229;41.820;23.490;2023-05-25T11:05:36;90116.13;;;24.89;38.05
10366;BME280;5229;41.820;23.490;2023-05-25T11:08:04;90122.16;;;24.93;37.68
10366;BME280;5229;41.820;23.490;2023-05-25T11:10:52;90129.34;;;24.96;37.72
10366;BME280;5229;41.820;23.490;2023-05-25T11:16:12;90135.63;;;25.23;38.57
10366;BME280;5229;41.820;23.490;2023-05-25T11:18:40;90132.88;;;25.44;38.36
10366;BME280;5229;41.820;23.490;2023-05-25T11:21:10;90132.78;;;25.58;38.64
10366;BME280;5229;41.820;23.490;2023-05-25T11:23:38;90132.72;;;25.69;38.63
10366;BME280;5229;41.820;23.490;2023-05-25T11:26:06;90136.06;;;25.76;37.95
10366;BME280;5229;41.820;23.490;2023-05-25T11:28:33;90127.31;;;25.79;37.29
10366;BME280;5229;41.820;23.490;2023-05-25T11:31:00;90128.81;;;25.80;36.55
10366;BME280;5229;41.820;23.490;2023-05-25T11:33:27;90123.88;;;25.79;36.18
10366;BME280;5229;41.820;23.490;2023-05-25T11:35:54;90116.69;;;25.79;35.37
10366;BME280;5229;41.820;23.490;2023-05-25T11:38:23;90122.00;;;25.79;35.68
10366;BME280;5229;41.820;23.490;2023-05-25T11:40:50;90122.72;;;25.83;35.72
10366;BME280;5229;41.820;23.490;2023-05-25T11:43:18;90120.78;;;25.87;34.90
10366;BME280;5229;41.820;23.490;2023-05-25T11:45:54;90112.09;;;25.83;34.66
10366;BME280;5229;41.820;23.490;2023-05-25T11:48:21;90122.00;;;25.79;34.03
10366;BME280;5229;41.820;23.490;2023-05-25T11:51:03;90112.91;;;25.77;34.55
10366;BME280;5229;41.820;23.490;2023-05-25T11:53:30;90111.75;;;25.81;34.58
10366;BME280;5229;41.820;23.490;2023-05-25T11:55:56;90108.66;;;25.86;34.90
10366;BME280;5229;41.820;23.490;2023-05-25T11:58:24;90104.84;;;25.87;34.07
10366;BME280;5229;41.820;23.490;2023-05-25T12:00:51;90090.16;;;25.76;34.39
10366;BME280;5229;41.820;23.490;2023-05-25T12:03:28;90083.41;;;25.64;33.86
10366;BME280;5229;41.820;23.490;2023-05-25T12:05:56;90075.44;;;25.61;34.67
10366;BME280;5229;41.820;23.490;2023-05-25T12:08:31;90072.84;;;25.53;33.88
10366;BME280;5229;41.820;23.490;2023-05-25T12:10:57;90064.53;;;25.48;34.73
10366;BME280;5229;41.820;23.490;2023-05-25T12:13:26;90052.03;;;25.45;33.91
10366;BME280;5229;41.820;23.490;2023-05-25T12:15:54;90054.75;;;25.38;33.72
10366;BME280;5229;41.820;23.490;2023-05-25T12:18:25;90057.06;;;25.32;33.73
10366;BME280;5229;41.820;23.490;2023-05-25T12:20:52;90053.28;;;25.33;34.09
10366;BME280;5229;41.820;23.490;2023-05-25T12:23:19;90054.78;;;25.34;34.02
10366;BME280;5229;41.820;23.490;2023-05-25T12:25:46;90050.22;;;25.38;34.42
10366;BME280;5229;41.820;23.490;2023-05-25T12:28:14;90053.56;;;25.46;34.09
10366;BME280;5229;41.820;23.490;2023-05-25T12:30:42;90045.56;;;25.49;34.07
10366;BME280;5229;41.820;23.490;2023-05-25T12:33:12;90035.38;;;25.44;33.25
10366;BME280;5229;41.820;23.490;2023-05-25T12:35:43;90027.47;;;25.37;33.79
10366;BME280;5229;41.820;23.490;2023-05-25T12:38:11;90030.50;;;25.36;33.72
10366;BME280;5229;41.820;23.490;2023-05-25T12:40:38;90036.59;;;25.36;33.44
10366;BME280;5229;41.820;23.490;2023-05-25T12:43:04;90027.81;;;25.39;33.65
10366;BME280;5229;41.820;23.490;2023-05-25T12:45:31;90031.16;;;25.47;32.61
10366;BME280;5229;41.820;23.490;2023-05-25T12:48:00;90026.19;;;25.56;32.84
10366;BME280;5229;41.820;23.490;2023-05-25T12:50:26;90024.91;;;25.68;32.87
10366;BME280;5229;41.820;23.490;2023-05-25T12:52:59;90016.47;;;25.76;32.49
10366;BME280;5229;41.820;23.490;2023-05-25T12:55:27;90022.50;;;25.80;32.05
10366;BME280;5229;41.820;23.490;2023-05-25T12:57:56;90021.00;;;25.83;32.25
10366;BME280;5229;41.820;23.490;2023-05-25T13:00:24;90025.09;;;25.87;32.33
10366;BME280;5229;41.820;23.490;2023-05-25T13:02:52;90017.50;;;25.89;31.84
10366;BME280;5229;41.820;23.490;2023-05-25T13:05:22;90013.34;;;25.88;31.74
10366;BME280;5229;41.820;23.490;2023-05-25T13:07:49;90008.09;;;25.81;31.65